Flight Number: EUR3050 Duration: 11:00
Departure: Dublin Airport (EIDW) at 07:00 Distance: 4515 Nm
Arrival: San Diego Int'l Airport (KSAN) at 18:00 Equipment: B777

Weather Information
Dublin Airport, Ireland (EIDW) 53-26N 006-15W 85M May 20, 2018 - 10:00 AM EDT / 2018.05.20 1400 UTC
Wind: from the SE (140 degrees) at 12 MPH (10 KT):0
Visibility: greater than 7 mile(s):0
Sky conditions: mostly cloudy Temperature: 64 F (18 C) Dew Point: 48 F (9 C) Relative Humidity: 55% Pressure (altimeter): 30.03 in. Hg (1017 hPa)
ob: EIDW 201400Z 14010KT 9999 FEW035 SCT060 BKN120 18/09 Q1017 NOSIG cycle: 14
Sunrise: 04:21 Sunset: 20:22 (UTC)

SAN DIEGO INTERNATIONAL \LINDBERGH FLD, CA, United States (KSAN) 32-44N 117-11W 12M May 20, 2018 - 09:51 AM EDT / 2018.05.20 1351 UTC
Wind: from the S (190 degrees) at 5 MPH (4 KT):0
Visibility: 10 mile(s):0
Sky conditions: overcast Temperature: 60.1 F (15.6 C) Dew Point: 55.0 F (12.8 C) Relative Humidity: 83% Pressure (altimeter): 29.95 in. Hg (1014 hPa)
ob: KSAN 201351Z 19004KT 10SM OVC019 16/13 A2995 RMK AO2 SLP143 T01560128 cycle: 14
Sunrise: 12:49 Sunset: 02:41 (UTC)

TAF: 404 Not Found

Not Found

The requested URL /data/forecasts/taf/stations/KSAN.TXT was not found on this server.



This route has never been flown.

Route map